Time;durP1;ratioP1;P1;durP2;ratioP2;P2;SDS_P1;SDS_P2;PMS_P1;PMS_P2;Temp;Humidity;BMP_temperature;BMP_pressure;BME280_temperature;BME280_humidity;BME280_pressure;Samples;Min_cycle;Max_cycle;Signal;HPM_P1;HPM_P2
2023/10/24 00:00:12;;;;;;;11.18;9.75;;;;;;;;;;5001443;28;20066;-70
2023/10/24 00:02:38;;;;;;;12.07;10.98;;;;;;;;;;5006867;28;20044;-70
2023/10/24 00:05:05;;;;;;;11.60;10.60;;;;;;;;;;4998741;28;20038;-71
2023/10/24 00:07:30;;;;;;;11.27;10.07;;;;;;;;;;5002541;28;20037;-70
2023/10/24 00:09:56;;;;;;;12.88;10.13;;;;;;;;;;5002458;28;20116;-70
2023/10/24 00:12:22;;;;;;;10.07;9.27;;;;;;;;;;5007192;28;20091;-70
2023/10/24 00:14:47;;;;;;;13.32;9.13;;;;;;;;;;5004286;28;20069;-70
2023/10/24 00:17:13;;;;;;;11.50;10.40;;;;;;;;;;4998511;28;20086;-70
2023/10/24 00:19:38;;;;;;;11.80;10.13;;;;;;;;;;5003094;28;20049;-70
2023/10/24 00:22:04;;;;;;;12.43;10.80;;;;;;;;;;4998770;28;20038;-70
2023/10/24 00:24:29;;;;;;;11.10;9.98;;;;;;;;;;5003356;28;20048;-70
2023/10/24 00:26:57;;;;;;;11.23;10.18;;;;;;;;;;5012752;28;20799;-71
2023/10/24 00:29:22;;;;;;;13.32;10.63;;;;;;;;;;4996680;28;20061;-70
2023/10/24 00:31:48;;;;;;;11.00;10.10;;;;;;;;;;5009201;28;20048;-70
2023/10/24 00:34:13;;;;;;;11.32;10.15;;;;;;;;;;4976910;28;20042;-70
2023/10/24 00:36:40;;;;;;;10.70;9.60;;;;;;;;;;5011510;28;20045;-70
2023/10/24 00:39:08;;;;;;;10.32;9.43;;;;;;;;;;4987561;28;20077;-70
2023/10/24 00:41:34;;;;;;;14.25;9.70;;;;;;;;;;4991895;28;20053;-70
2023/10/24 00:43:59;;;;;;;13.20;10.57;;;;;;;;;;5003443;28;20048;-70
2023/10/24 00:46:26;;;;;;;10.45;9.63;;;;;;;;;;4983653;28;20041;-70
2023/10/24 00:48:52;;;;;;;10.52;9.55;;;;;;;;;;5011051;28;20096;-70
2023/10/24 00:51:19;;;;;;;14.00;10.07;;;;;;;;;;4997463;28;20038;-71
2023/10/24 00:53:45;;;;;;;10.32;9.32;;;;;;;;;;4985084;28;20048;-71
2023/10/24 00:56:11;;;;;;;10.90;9.80;;;;;;;;;;4984169;28;20053;-70
2023/10/24 00:58:38;;;;;;;12.65;9.75;;;;;;;;;;4991220;28;20033;-71
2023/10/24 01:01:10;;;;;;;10.05;9.20;;;;;;;;;;4983660;28;20045;-71
2023/10/24 01:03:37;;;;;;;10.68;9.57;;;;;;;;;;5012029;28;20025;-71
2023/10/24 01:06:03;;;;;;;11.00;9.88;;;;;;;;;;4984103;28;20048;-70
2023/10/24 01:08:29;;;;;;;11.00;9.98;;;;;;;;;;5001876;28;20037;-71
2023/10/24 01:10:54;;;;;;;11.93;10.75;;;;;;;;;;4984211;28;20042;-71
2023/10/24 01:13:20;;;;;;;11.40;10.35;;;;;;;;;;4985882;28;20048;-70
2023/10/24 01:15:45;;;;;;;10.93;9.93;;;;;;;;;;4984481;28;20041;-71
2023/10/24 01:18:11;;;;;;;10.90;9.90;;;;;;;;;;4982008;28;20048;-71
2023/10/24 01:20:39;;;;;;;10.52;9.48;;;;;;;;;;4983659;28;20030;-71
2023/10/24 01:23:10;;;;;;;11.10;10.00;;;;;;;;;;4983427;28;20180;-71
2023/10/24 01:25:41;;;;;;;10.13;9.23;;;;;;;;;;5000482;28;20380;-70
2023/10/24 01:28:08;;;;;;;10.60;9.50;;;;;;;;;;4998176;28;20034;-70
2023/10/24 01:30:35;;;;;;;10.73;9.60;;;;;;;;;;5001358;28;20543;-71
2023/10/24 01:33:01;;;;;;;10.65;9.65;;;;;;;;;;5000319;28;20054;-71
2023/10/24 01:35:26;;;;;;;12.13;9.93;;;;;;;;;;5001098;28;20037;-71
2023/10/24 01:37:52;;;;;;;10.57;9.57;;;;;;;;;;5003084;28;20559;-71
2023/10/24 01:40:18;;;;;;;11.20;10.10;;;;;;;;;;5003414;28;20080;-71
2023/10/24 01:42:43;;;;;;;11.70;9.90;;;;;;;;;;4988123;28;20048;-71
2023/10/24 01:45:09;;;;;;;11.25;10.25;;;;;;;;;;4985733;28;20071;-71
2023/10/24 01:47:35;;;;;;;11.23;10.02;;;;;;;;;;4987372;28;20037;-71
2023/10/24 01:50:01;;;;;;;12.75;9.73;;;;;;;;;;4983231;28;20136;-71
2023/10/24 01:52:27;;;;;;;10.75;9.63;;;;;;;;;;5001420;28;20053;-71
2023/10/24 01:54:53;;;;;;;10.52;9.63;;;;;;;;;;4982783;28;20384;-71
2023/10/24 01:57:19;;;;;;;11.18;10.05;;;;;;;;;;4986642;28;20053;-70
2023/10/24 01:59:44;;;;;;;10.73;9.73;;;;;;;;;;4980703;28;20083;-71
2023/10/24 02:02:10;;;;;;;11.40;10.32;;;;;;;;;;4983727;28;20042;-70
2023/10/24 02:04:35;;;;;;;11.20;10.02;;;;;;;;;;4984028;28;20033;-71
2023/10/24 02:07:03;;;;;;;11.05;9.98;;;;;;;;;;5003114;28;20521;-71
2023/10/24 02:09:30;;;;;;;11.38;10.25;;;;;;;;;;4996737;28;20025;-70
2023/10/24 02:11:58;;;;;;;11.25;10.15;;;;;;;;;;4983626;28;20537;-71
2023/10/24 02:14:24;;;;;;;10.90;10.00;;;;;;;;;;5000828;28;20129;-71
2023/10/24 02:16:50;;;;;;;11.70;10.45;;;;;;;;;;5001155;28;20406;-70
2023/10/24 02:19:16;;;;;;;12.70;10.63;;;;;;;;;;5000711;28;20038;-70
2023/10/24 02:21:41;;;;;;;12.05;10.38;;;;;;;;;;4985979;28;20037;-70
2023/10/24 02:24:07;;;;;;;10.13;9.30;;;;;;;;;;5001712;28;20034;-71
2023/10/24 02:26:33;;;;;;;11.45;10.45;;;;;;;;;;4973622;28;20045;-71
2023/10/24 02:28:58;;;;;;;11.20;10.10;;;;;;;;;;5005020;28;20053;-71
2023/10/24 02:31:24;;;;;;;11.13;9.65;;;;;;;;;;4993238;28;20033;-71
2023/10/24 02:33:49;;;;;;;11.95;10.02;;;;;;;;;;4993953;23;20095;-68
2023/10/24 02:36:15;;;;;;;12.10;10.77;;;;;;;;;;5026389;28;21039;-68
2023/10/24 02:38:42;;;;;;;13.10;10.32;;;;;;;;;;5031281;28;20040;-68
2023/10/24 02:41:08;;;;;;;11.75;10.55;;;;;;;;;;5033240;28;20040;-68
2023/10/24 02:43:34;;;;;;;11.10;10.13;;;;;;;;;;5037064;28;20040;-68
2023/10/24 02:46:04;;;;;;;11.93;10.73;;;;;;;;;;5041484;28;20079;-68
2023/10/24 02:48:31;;;;;;;13.25;10.80;;;;;;;;;;5030132;28;20064;-68
2023/10/24 02:50:57;;;;;;;11.80;10.63;;;;;;;;;;5057278;28;20043;-68
2023/10/24 02:53:23;;;;;;;11.00;9.95;;;;;;;;;;5048321;28;20036;-69
2023/10/24 02:55:49;;;;;;;12.88;10.68;;;;;;;;;;5048008;28;20082;-68
2023/10/24 02:58:16;;;;;;;11.80;10.60;;;;;;;;;;5042829;28;21012;-68
2023/10/24 03:00:44;;;;;;;12.45;10.82;;;;;;;;;;5042089;28;20077;-68
2023/10/24 03:03:11;;;;;;;12.13;10.45;;;;;;;;;;5041727;28;20490;-68
2023/10/24 03:05:37;;;;;;;12.27;10.98;;;;;;;;;;5044368;28;20749;-68
2023/10/24 03:08:03;;;;;;;11.82;10.60;;;;;;;;;;5048337;28;20115;-68
2023/10/24 03:10:29;;;;;;;11.63;10.43;;;;;;;;;;5034812;28;20090;-68
2023/10/24 03:12:55;;;;;;;11.75;10.70;;;;;;;;;;5042053;28;20032;-69
2023/10/24 03:15:21;;;;;;;11.98;10.93;;;;;;;;;;5040276;28;20064;-69
2023/10/24 03:17:46;;;;;;;11.65;10.63;;;;;;;;;;5039892;28;20083;-68
2023/10/24 03:20:12;;;;;;;13.45;11.60;;;;;;;;;;5049060;28;20064;-68
2023/10/24 03:22:39;;;;;;;12.65;11.45;;;;;;;;;;5056107;28;20036;-68
2023/10/24 03:25:05;;;;;;;12.95;11.75;;;;;;;;;;5040197;28;20037;-67
2023/10/24 03:27:31;;;;;;;13.48;12.10;;;;;;;;;;5044379;28;20028;-70
2023/10/24 03:29:57;;;;;;;13.13;12.02;;;;;;;;;;5033039;28;20048;-67
2023/10/24 03:32:22;;;;;;;15.57;14.07;;;;;;;;;;5044285;28;20060;-67
2023/10/24 03:34:48;;;;;;;14.75;13.18;;;;;;;;;;5045104;28;20063;-67
2023/10/24 03:37:14;;;;;;;15.35;13.07;;;;;;;;;;5030015;28;20095;-68
2023/10/24 03:39:40;;;;;;;16.55;12.75;;;;;;;;;;5055249;28;20532;-68
2023/10/24 03:42:06;;;;;;;18.42;12.63;;;;;;;;;;5052317;28;20033;-70
2023/10/24 03:44:32;;;;;;;12.18;11.02;;;;;;;;;;5056084;28;20083;-70
2023/10/24 03:46:58;;;;;;;12.30;11.25;;;;;;;;;;5046378;28;20429;-67
2023/10/24 03:49:23;;;;;;;13.40;12.20;;;;;;;;;;5050350;28;20085;-67
2023/10/24 03:51:49;;;;;;;12.40;11.40;;;;;;;;;;5047669;28;20115;-68
2023/10/24 03:54:14;;;;;;;12.40;11.20;;;;;;;;;;5056499;28;20036;-68
2023/10/24 03:56:41;;;;;;;17.23;11.60;;;;;;;;;;5038904;28;20036;-68
2023/10/24 03:59:06;;;;;;;12.27;10.82;;;;;;;;;;5048077;28;20036;-67
2023/10/24 04:01:36;;;;;;;11.13;10.00;;;;;;;;;;5046669;28;20047;-70
2023/10/24 04:04:01;;;;;;;12.38;10.88;;;;;;;;;;5053562;28;20052;-69
2023/10/24 04:06:27;;;;;;;14.40;10.80;;;;;;;;;;5053563;28;20040;-68
2023/10/24 04:08:53;;;;;;;10.63;9.60;;;;;;;;;;5045732;28;20032;-69
2023/10/24 04:11:18;;;;;;;13.38;11.02;;;;;;;;;;5039942;28;20083;-69
2023/10/24 04:13:46;;;;;;;12.05;10.80;;;;;;;;;;5050739;28;20417;-68
2023/10/24 04:16:12;;;;;;;11.60;10.55;;;;;;;;;;5050414;28;20091;-68
2023/10/24 04:18:38;;;;;;;12.43;11.18;;;;;;;;;;5036084;28;20021;-68
2023/10/24 04:21:04;;;;;;;12.02;10.93;;;;;;;;;;5048568;28;20068;-68
2023/10/24 04:23:30;;;;;;;12.07;10.88;;;;;;;;;;5019379;28;20126;-68
2023/10/24 04:25:56;;;;;;;11.82;10.82;;;;;;;;;;5047191;28;20127;-68
2023/10/24 04:28:21;;;;;;;12.32;11.10;;;;;;;;;;5046254;28;20106;-68
2023/10/24 04:30:47;;;;;;;11.95;10.98;;;;;;;;;;5042854;28;20029;-69
2023/10/24 04:33:14;;;;;;;12.95;10.60;;;;;;;;;;5048474;28;20532;-68
2023/10/24 04:35:41;;;;;;;11.43;10.35;;;;;;;;;;5043670;28;20036;-68
2023/10/24 04:38:06;;;;;;;12.57;11.35;;;;;;;;;;5048079;28;20029;-68
2023/10/24 04:40:35;;;;;;;12.35;10.98;;;;;;;;;;5055302;28;20753;-68
2023/10/24 04:43:01;;;;;;;11.20;10.30;;;;;;;;;;5056339;28;20040;-68
2023/10/24 04:45:29;;;;;;;11.30;10.30;;;;;;;;;;5051332;28;20029;-68
2023/10/24 04:47:55;;;;;;;12.27;11.18;;;;;;;;;;5049720;28;20025;-68
2023/10/24 04:50:21;;;;;;;11.73;10.82;;;;;;;;;;5037176;28;20169;-68
2023/10/24 04:52:49;;;;;;;15.98;10.65;;;;;;;;;;5048750;28;20052;-68
2023/10/24 04:55:14;;;;;;;11.32;10.20;;;;;;;;;;5048296;28;20040;-68
2023/10/24 04:57:42;;;;;;;12.02;11.00;;;;;;;;;;5032572;28;20162;-68
2023/10/24 05:00:11;;;;;;;12.52;11.23;;;;;;;;;;5053305;28;20052;-69
2023/10/24 05:02:38;;;;;;;11.52;10.43;;;;;;;;;;5050299;28;20052;-69
2023/10/24 05:05:05;;;;;;;12.00;10.90;;;;;;;;;;5044512;28;20383;-67
2023/10/24 05:07:30;;;;;;;12.88;11.32;;;;;;;;;;5049336;28;20398;-68
2023/10/24 05:09:56;;;;;;;11.35;10.35;;;;;;;;;;5044821;28;20521;-67
2023/10/24 05:12:21;;;;;;;12.10;11.00;;;;;;;;;;5045795;28;20033;-67
2023/10/24 05:14:47;;;;;;;14.07;10.85;;;;;;;;;;5043505;28;20037;-67
2023/10/24 05:17:14;;;;;;;13.27;11.93;;;;;;;;;;5054710;28;20693;-67
2023/10/24 05:19:43;;;;;;;12.65;11.48;;;;;;;;;;5054036;28;20041;-67
2023/10/24 05:22:10;;;;;;;16.38;12.65;;;;;;;;;;5049073;28;20036;-67
2023/10/24 05:24:37;;;;;;;13.20;12.05;;;;;;;;;;5047932;28;20114;-67
2023/10/24 05:27:04;;;;;;;13.25;11.95;;;;;;;;;;5049295;28;20172;-67
2023/10/24 05:29:36;;;;;;;12.73;11.52;;;;;;;;;;5050025;28;20139;-68
2023/10/24 05:32:01;;;;;;;13.15;11.85;;;;;;;;;;5051558;28;20741;-69
2023/10/24 05:34:30;;;;;;;12.07;10.98;;;;;;;;;;5050924;28;20168;-67
2023/10/24 05:36:56;;;;;;;12.85;11.77;;;;;;;;;;5057634;28;20036;-67
2023/10/24 05:39:24;;;;;;;13.93;11.80;;;;;;;;;;5042440;28;20059;-67
2023/10/24 05:41:50;;;;;;;13.27;12.05;;;;;;;;;;5051884;28;20032;-68
2023/10/24 05:44:16;;;;;;;13.57;11.60;;;;;;;;;;5043715;28;20118;-69
2023/10/24 05:46:42;;;;;;;12.02;10.82;;;;;;;;;;5048267;28;20496;-68
2023/10/24 05:49:07;;;;;;;12.25;11.13;;;;;;;;;;5058084;28;20082;-69
2023/10/24 05:51:33;;;;;;;13.73;12.07;;;;;;;;;;5041053;28;20039;-69
2023/10/24 05:53:59;;;;;;;12.73;11.63;;;;;;;;;;5057779;28;20033;-69
2023/10/24 05:56:25;;;;;;;14.55;12.85;;;;;;;;;;5050698;28;20037;-69
2023/10/24 05:58:51;;;;;;;13.95;12.75;;;;;;;;;;5047639;28;20040;-69
2023/10/24 06:01:18;;;;;;;14.65;13.05;;;;;;;;;;5049625;28;20050;-69
2023/10/24 06:03:43;;;;;;;15.00;12.93;;;;;;;;;;5047199;28;20072;-69
2023/10/24 06:06:09;;;;;;;13.32;12.00;;;;;;;;;;5056208;28;20064;-69
2023/10/24 06:08:35;;;;;;;13.60;12.35;;;;;;;;;;5049361;28;20075;-69
2023/10/24 06:11:03;;;;;;;14.20;12.90;;;;;;;;;;5059077;28;20037;-69
2023/10/24 06:13:29;;;;;;;14.00;11.82;;;;;;;;;;5049748;28;20042;-69
2023/10/24 06:16:04;;;;;;;13.82;12.40;;;;;;;;;;5050270;28;20509;-68
2023/10/24 06:18:30;;;;;;;13.50;12.02;;;;;;;;;;5057778;28;20063;-69
2023/10/24 06:20:56;;;;;;;13.15;11.90;;;;;;;;;;5048580;28;20556;-69
2023/10/24 06:23:23;;;;;;;11.50;10.65;;;;;;;;;;5048288;28;20076;-68
2023/10/24 06:25:48;;;;;;;15.60;12.40;;;;;;;;;;5055797;28;20037;-69
2023/10/24 06:28:14;;;;;;;12.85;11.68;;;;;;;;;;5055833;28;20036;-68
2023/10/24 06:30:39;;;;;;;13.90;12.55;;;;;;;;;;5051210;28;20044;-68
2023/10/24 06:33:05;;;;;;;14.27;11.88;;;;;;;;;;5058350;28;20041;-68
2023/10/24 06:35:30;;;;;;;13.23;11.85;;;;;;;;;;5061375;28;20033;-69
2023/10/24 06:37:56;;;;;;;15.35;11.98;;;;;;;;;;5064420;28;20351;-69
2023/10/24 06:40:22;;;;;;;13.05;11.82;;;;;;;;;;5054769;28;20044;-69
2023/10/24 06:42:49;;;;;;;14.55;12.15;;;;;;;;;;5055877;28;20505;-69
2023/10/24 06:45:16;;;;;;;13.93;12.43;;;;;;;;;;5052054;28;20028;-68
2023/10/24 06:47:41;;;;;;;14.70;12.30;;;;;;;;;;5055439;28;20111;-69
2023/10/24 06:50:07;;;;;;;13.27;12.00;;;;;;;;;;5051442;28;20523;-68
2023/10/24 06:52:33;;;;;;;13.98;12.60;;;;;;;;;;5057348;28;20045;-69
2023/10/24 06:54:59;;;;;;;17.25;13.75;;;;;;;;;;5059265;28;20042;-69
2023/10/24 06:57:25;;;;;;;14.07;12.73;;;;;;;;;;5047945;28;20534;-69
2023/10/24 06:59:50;;;;;;;14.82;13.18;;;;;;;;;;5063165;28;20430;-69
2023/10/24 07:02:17;;;;;;;14.45;12.98;;;;;;;;;;5053054;28;20461;-69
2023/10/24 07:04:43;;;;;;;13.55;12.18;;;;;;;;;;5052305;28;20120;-69
2023/10/24 07:07:08;;;;;;;14.13;12.73;;;;;;;;;;5056783;28;20187;-69
2023/10/24 07:09:34;;;;;;;15.68;13.70;;;;;;;;;;5054644;28;20037;-69
2023/10/24 07:12:00;;;;;;;15.13;13.63;;;;;;;;;;5058741;28;20430;-69
2023/10/24 07:14:25;;;;;;;14.63;13.27;;;;;;;;;;5054379;28;20047;-69
2023/10/24 07:16:51;;;;;;;15.70;13.38;;;;;;;;;;5052835;28;20043;-70
2023/10/24 07:19:18;;;;;;;13.98;12.45;;;;;;;;;;5043866;28;20521;-69
2023/10/24 07:21:44;;;;;;;14.95;13.45;;;;;;;;;;5035836;28;20447;-70
2023/10/24 07:24:10;;;;;;;15.43;13.82;;;;;;;;;;5021913;28;20065;-70
2023/10/24 07:26:35;;;;;;;15.32;13.82;;;;;;;;;;5011147;28;20069;-70
2023/10/24 07:29:01;;;;;;;15.55;13.50;;;;;;;;;;5011070;28;20048;-70
2023/10/24 07:31:27;;;;;;;14.90;13.40;;;;;;;;;;5009645;28;20087;-70
2023/10/24 07:33:52;;;;;;;16.15;14.13;;;;;;;;;;5013691;28;20068;-70
2023/10/24 07:36:18;;;;;;;15.30;13.82;;;;;;;;;;5013906;28;20095;-70
2023/10/24 07:38:43;;;;;;;16.48;14.85;;;;;;;;;;5010667;28;20561;-70
2023/10/24 07:41:10;;;;;;;18.05;16.15;;;;;;;;;;5016290;28;20042;-70
2023/10/24 07:43:36;;;;;;;20.27;15.80;;;;;;;;;;5013656;28;20694;-70
2023/10/24 07:46:02;;;;;;;18.42;16.15;;;;;;;;;;5014307;28;20041;-70
2023/10/24 07:48:28;;;;;;;16.52;14.98;;;;;;;;;;5002934;28;20550;-70
2023/10/24 07:50:57;;;;;;;17.02;15.40;;;;;;;;;;5026330;28;20037;-70
2023/10/24 07:53:24;;;;;;;20.20;16.08;;;;;;;;;;5009850;28;20450;-70
2023/10/24 07:55:51;;;;;;;18.05;16.17;;;;;;;;;;5009318;28;20045;-70
2023/10/24 07:58:17;;;;;;;18.02;15.82;;;;;;;;;;5011900;28;20460;-70
2023/10/24 08:00:46;;;;;;;17.88;16.27;;;;;;;;;;5028041;28;20081;-71
2023/10/24 08:03:12;;;;;;;;;;;;;;;;;;5066393;28;20041;-71
2023/10/24 08:05:38;;;;;;;18.02;16.30;;;;;;;;;;5073444;28;19964;-71
2023/10/24 08:08:04;;;;;;;19.02;17.23;;;;;;;;;;5078415;28;20028;-70
2023/10/24 08:10:31;;;;;;;19.67;16.45;;;;;;;;;;5068814;28;20029;-70
2023/10/24 08:12:58;;;;;;;18.48;16.67;;;;;;;;;;5033354;28;20044;-71
2023/10/24 08:15:23;;;;;;;18.33;16.52;;;;;;;;;;5051871;28;20047;-70
2023/10/24 08:17:49;;;;;;;19.55;17.17;;;;;;;;;;5055476;28;20032;-71
2023/10/24 08:20:14;;;;;;;18.63;16.77;;;;;;;;;;5051090;28;20148;-71
2023/10/24 08:22:40;;;;;;;18.90;17.17;;;;;;;;;;5044860;28;20393;-71
2023/10/24 08:25:06;;;;;;;17.58;15.98;;;;;;;;;;5053914;28;20418;-70
2023/10/24 08:27:31;;;;;;;16.65;15.23;;;;;;;;;;5048065;28;20021;-70
2023/10/24 08:29:57;;;;;;;16.40;14.70;;;;;;;;;;5046970;28;20040;-71
2023/10/24 08:32:23;;;;;;;20.10;17.90;;;;;;;;;;5049561;28;20091;-69
2023/10/24 08:34:49;;;;;;;18.80;16.90;;;;;;;;;;5046395;28;20119;-70
2023/10/24 08:37:15;;;;;;;22.27;17.05;;;;;;;;;;5048957;28;20059;-71
2023/10/24 08:39:41;;;;;;;22.65;18.60;;;;;;;;;;5046020;28;20044;-70
2023/10/24 08:42:10;;;;;;;21.05;18.10;;;;;;;;;;5039786;28;20025;-71
2023/10/24 08:44:37;;;;;;;22.35;20.05;;;;;;;;;;5026351;28;20033;-70
2023/10/24 08:47:04;;;;;;;21.20;18.95;;;;;;;;;;5047803;28;20032;-70
2023/10/24 08:49:31;;;;;;;20.90;18.80;;;;;;;;;;5050640;28;20045;-69
2023/10/24 08:51:57;;;;;;;19.80;17.70;;;;;;;;;;5039109;28;20047;-69
2023/10/24 08:54:23;;;;;;;18.20;16.45;;;;;;;;;;5054151;28;20040;-69
2023/10/24 08:56:51;;;;;;;23.48;17.40;;;;;;;;;;5044130;28;20090;-72
2023/10/24 08:59:18;;;;;;;19.13;17.25;;;;;;;;;;5023001;28;20123;-70
2023/10/24 09:01:44;;;;;;;19.55;16.73;;;;;;;;;;5029256;28;20042;-69
2023/10/24 09:04:10;;;;;;;19.30;16.65;;;;;;;;;;5050779;28;20041;-72
2023/10/24 09:06:36;;;;;;;17.65;15.95;;;;;;;;;;5051087;28;20040;-70
2023/10/24 09:09:02;;;;;;;19.60;17.77;;;;;;;;;;5050109;28;20094;-71
2023/10/24 09:11:52;;;;;;;18.85;16.85;;;;;;;;;;5043064;28;20032;-70
2023/10/24 09:14:18;;;;;;;21.52;18.23;;;;;;;;;;5050955;28;20041;-72
2023/10/24 09:16:43;;;;;;;19.33;17.15;;;;;;;;;;5049809;28;20097;-71
2023/10/24 09:19:12;;;;;;;19.58;17.67;;;;;;;;;;5049834;28;20121;-73
2023/10/24 09:21:38;;;;;;;18.30;16.65;;;;;;;;;;5033309;28;20043;-69
2023/10/24 09:24:12;;;;;;;19.05;17.10;;;;;;;;;;5051216;28;20033;-70
2023/10/24 09:26:39;;;;;;;18.92;17.00;;;;;;;;;;5050021;28;20040;-73
2023/10/24 09:29:08;;;;;;;21.73;16.55;;;;;;;;;;5034790;28;20036;-73
2023/10/24 09:31:34;;;;;;;60.63;36.33;;;;;;;;;;5046964;28;20031;-70
2023/10/24 09:34:00;;;;;;;23.42;20.63;;;;;;;;;;5049759;28;20036;-74
2023/10/24 09:36:25;;;;;;;20.95;18.95;;;;;;;;;;5047858;28;20041;-71
2023/10/24 09:38:55;;;;;;;20.23;17.58;;;;;;;;;;5053494;28;20028;-69
2023/10/24 09:41:21;;;;;;;20.50;18.30;;;;;;;;;;5050258;28;20043;-70
2023/10/24 09:43:48;;;;;;;22.63;19.50;;;;;;;;;;5023554;28;20033;-69
2023/10/24 09:46:21;;;;;;;20.52;18.45;;;;;;;;;;5052130;28;20036;-71
2023/10/24 09:48:47;;;;;;;19.88;18.08;;;;;;;;;;5046853;28;20056;-69
2023/10/24 09:51:13;;;;;;;20.30;18.27;;;;;;;;;;5033521;28;20040;-70
2023/10/24 09:53:40;;;;;;;20.13;18.15;;;;;;;;;;5045101;28;20044;-68
2023/10/24 09:56:06;;;;;;;21.25;19.35;;;;;;;;;;5051042;28;20113;-69
2023/10/24 09:58:35;;;;;;;20.73;18.60;;;;;;;;;;5050571;28;20036;-69
2023/10/24 10:01:03;;;;;;;19.30;17.52;;;;;;;;;;5033694;28;20076;-69
2023/10/24 10:03:30;;;;;;;22.23;20.13;;;;;;;;;;5044432;28;20568;-68
2023/10/24 10:05:58;;;;;;;21.55;19.48;;;;;;;;;;5042820;28;20036;-68
2023/10/24 10:08:25;;;;;;;21.63;19.45;;;;;;;;;;5024079;28;20541;-68
2023/10/24 10:10:51;;;;;;;22.73;20.52;;;;;;;;;;5043443;28;20502;-69
2023/10/24 10:13:27;;;;;;;21.25;18.98;;;;;;;;;;5025458;28;20033;-69
2023/10/24 10:16:12;;;;;;;20.02;18.15;;;;;;;;;;5048693;28;20037;-68
2023/10/24 10:19:32;;;;;;;20.35;18.45;;;;;;;;;;5040065;28;20032;-68
2023/10/24 10:22:22;;;;;;;21.58;19.35;;;;;;;;;;5050639;28;20056;-67
2023/10/24 10:25:06;;;;;;;23.23;18.98;;;;;;;;;;5044153;28;20095;-67
2023/10/24 10:27:42;;;;;;;63.50;41.35;;;;;;;;;;5042943;28;20039;-68
2023/10/24 10:30:31;;;;;;;40.58;29.45;;;;;;;;;;5048885;28;20071;-67
2023/10/24 10:33:09;;;;;;;18.77;17.17;;;;;;;;;;5050820;28;20044;-68
2023/10/24 10:35:55;;;;;;;26.15;22.05;;;;;;;;;;5031801;28;20127;-67
2023/10/24 10:38:39;;;;;;;21.00;18.95;;;;;;;;;;5044409;28;20048;-67
2023/10/24 10:41:38;;;;;;;19.73;17.88;;;;;;;;;;5047046;28;20383;-68
2023/10/24 10:44:23;;;;;;;;;;;;;;;;;;4970594;28;20463;-67
2023/10/24 10:46:58;;;;;;;19.25;17.25;;;;;;;;;;4966497;28;19914;-68
2023/10/24 10:49:26;;;;;;;19.77;17.77;;;;;;;;;;4969644;28;20053;-67
2023/10/24 10:51:55;;;;;;;46.63;31.88;;;;;;;;;;4972545;28;20035;-67
2023/10/24 10:54:44;;;;;;;41.75;21.65;;;;;;;;;;4964392;28;20392;-70
2023/10/24 10:57:15;;;;;;;99.68;22.20;;;;;;;;;;4971837;28;20074;-68
2023/10/24 10:59:48;;;;;;;34.80;21.00;;;;;;;;;;4966554;28;20054;-67
2023/10/24 11:02:37;;;;;;;21.75;19.52;;;;;;;;;;4956842;28;20034;-67
2023/10/24 11:05:37;;;;;;;24.92;19.85;;;;;;;;;;4969722;28;20058;-67
2023/10/24 11:08:06;;;;;;;21.08;19.08;;;;;;;;;;4972410;28;20157;-67
2023/10/24 11:10:54;;;;;;;20.85;18.83;;;;;;;;;;4968043;28;20066;-67
2023/10/24 11:13:42;;;;;;;19.95;17.83;;;;;;;;;;4971461;28;20116;-67
2023/10/24 11:16:09;;;;;;;21.60;19.30;;;;;;;;;;4974368;28;20045;-67
2023/10/24 11:18:37;;;;;;;22.52;20.13;;;;;;;;;;4977018;28;20042;-67
2023/10/24 11:21:05;;;;;;;23.38;20.85;;;;;;;;;;5057461;28;20028;-68
2023/10/24 11:23:32;;;;;;;22.73;20.42;;;;;;;;;;5055676;28;20032;-67
2023/10/24 11:25:59;;;;;;;23.67;21.25;;;;;;;;;;5049497;28;20025;-67
2023/10/24 11:28:27;;;;;;;29.52;23.45;;;;;;;;;;5054707;28;20028;-68
2023/10/24 11:30:56;;;;;;;33.55;23.85;;;;;;;;;;5053599;28;20059;-67
2023/10/24 11:33:22;;;;;;;43.85;27.73;;;;;;;;;;5048533;28;20036;-67
2023/10/24 11:35:48;;;;;;;294.75;87.45;;;;;;;;;;5056718;28;20040;-67
2023/10/24 11:38:16;;;;;;;31.38;25.02;;;;;;;;;;5052303;28;20032;-67
2023/10/24 11:40:46;;;;;;;41.55;21.33;;;;;;;;;;5053731;28;20068;-67
2023/10/24 11:43:13;;;;;;;54.63;19.38;;;;;;;;;;5060036;28;20032;-67
2023/10/24 11:45:39;;;;;;;29.02;19.50;;;;;;;;;;5058234;28;20043;-66
2023/10/24 11:48:05;;;;;;;91.80;22.92;;;;;;;;;;5051623;28;20037;-68
2023/10/24 11:50:46;;;;;;;35.65;21.98;;;;;;;;;;5048874;28;20048;-68
2023/10/24 11:53:22;;;;;;;22.33;19.95;;;;;;;;;;5042920;28;20123;-68
2023/10/24 11:55:49;;;;;;;22.45;19.85;;;;;;;;;;5051299;28;20024;-68
2023/10/24 11:58:16;;;;;;;21.45;19.20;;;;;;;;;;5045028;28;20068;-68
2023/10/24 12:00:45;;;;;;;21.98;19.45;;;;;;;;;;5053833;28;20536;-69
2023/10/24 12:03:11;;;;;;;23.73;19.92;;;;;;;;;;5047909;28;20516;-68
2023/10/24 12:05:38;;;;;;;21.25;19.35;;;;;;;;;;5046564;28;20033;-69
2023/10/24 12:08:06;;;;;;;21.60;19.30;;;;;;;;;;5032600;28;20075;-68
2023/10/24 12:10:33;;;;;;;22.65;19.30;;;;;;;;;;5053836;28;20153;-68
2023/10/24 12:13:03;;;;;;;29.60;20.30;;;;;;;;;;5048634;28;20040;-69
2023/10/24 12:15:32;;;;;;;25.63;20.60;;;;;;;;;;5050063;28;20031;-68
2023/10/24 12:18:03;;;;;;;30.33;19.23;;;;;;;;;;5051386;28;20040;-68
2023/10/24 12:20:30;;;;;;;91.57;20.90;;;;;;;;;;5048977;28;20525;-68
2023/10/24 12:22:56;;;;;;;58.45;20.55;;;;;;;;;;5063202;28;20059;-68
2023/10/24 12:25:21;;;;;;;42.05;20.30;;;;;;;;;;5058302;28;20033;-68
2023/10/24 12:27:47;;;;;;;218.00;23.67;;;;;;;;;;5058034;28;20391;-68
2023/10/24 12:30:14;;;;;;;286.83;25.15;;;;;;;;;;5051324;28;20060;-68
2023/10/24 12:32:41;;;;;;;398.80;35.53;;;;;;;;;;5052347;28;20024;-66
2023/10/24 12:35:09;;;;;;;113.20;23.65;;;;;;;;;;5054787;28;20037;-69
2023/10/24 12:37:36;;;;;;;40.00;19.58;;;;;;;;;;5052528;28;20535;-68
2023/10/24 12:40:04;;;;;;;26.05;20.05;;;;;;;;;;5049727;28;20131;-68
2023/10/24 12:42:30;;;;;;;46.60;19.90;;;;;;;;;;5044894;28;20044;-68
2023/10/24 12:44:56;;;;;;;85.00;19.48;;;;;;;;;;5040425;28;20068;-69
2023/10/24 12:47:22;;;;;;;21.30;19.10;;;;;;;;;;5054597;28;20090;-68
2023/10/24 12:49:47;;;;;;;21.65;18.83;;;;;;;;;;5043835;28;20096;-68
2023/10/24 12:52:13;;;;;;;39.08;33.63;;;;;;;;;;5047852;28;20094;-69
2023/10/24 12:54:39;;;;;;;21.95;19.80;;;;;;;;;;5027085;28;20090;-69
2023/10/24 12:57:04;;;;;;;26.00;19.42;;;;;;;;;;5047208;28;20486;-70
2023/10/24 12:59:30;;;;;;;22.98;19.58;;;;;;;;;;5042526;28;20048;-69
2023/10/24 13:01:56;;;;;;;26.20;23.80;;;;;;;;;;5047486;28;20072;-69
2023/10/24 13:04:22;;;;;;;28.70;25.95;;;;;;;;;;5047464;28;20039;-69
2023/10/24 13:06:50;;;;;;;22.95;20.75;;;;;;;;;;5044947;28;20040;-67
2023/10/24 13:09:15;;;;;;;25.80;23.33;;;;;;;;;;5054463;28;20050;-67
2023/10/24 13:11:44;;;;;;;33.08;29.30;;;;;;;;;;5052307;28;20732;-69
2023/10/24 13:14:11;;;;;;;32.28;26.00;;;;;;;;;;5051963;28;20040;-69
2023/10/24 13:16:36;;;;;;;26.33;23.52;;;;;;;;;;5047369;28;20037;-68
2023/10/24 13:19:02;;;;;;;23.30;21.10;;;;;;;;;;5055633;28;20684;-69
2023/10/24 13:21:27;;;;;;;23.35;20.88;;;;;;;;;;5045431;28;20040;-68
2023/10/24 13:23:53;;;;;;;26.13;23.70;;;;;;;;;;5050540;28;20029;-69
2023/10/24 13:26:18;;;;;;;33.22;25.30;;;;;;;;;;5038450;28;20104;-69
2023/10/24 13:28:44;;;;;;;27.85;24.95;;;;;;;;;;5044381;28;20111;-68
2023/10/24 13:31:09;;;;;;;27.45;19.10;;;;;;;;;;5044263;28;20394;-68
2023/10/24 13:33:37;;;;;;;21.98;19.67;;;;;;;;;;5046927;28;20530;-68
2023/10/24 13:36:03;;;;;;;19.95;18.25;;;;;;;;;;5050308;28;22780;-68
2023/10/24 13:38:30;;;;;;;21.85;19.92;;;;;;;;;;5041615;28;20033;-68
2023/10/24 13:40:55;;;;;;;21.02;19.33;;;;;;;;;;5044090;28;20131;-68
2023/10/24 13:43:21;;;;;;;20.67;18.77;;;;;;;;;;5038805;28;20158;-68
2023/10/24 13:45:46;;;;;;;94.28;20.75;;;;;;;;;;5053175;28;20047;-68
2023/10/24 13:48:12;;;;;;;92.60;25.02;;;;;;;;;;5039878;28;20675;-68
2023/10/24 13:50:37;;;;;;;167.65;23.90;;;;;;;;;;5041556;28;20414;-68
2023/10/24 13:53:03;;;;;;;37.30;21.20;;;;;;;;;;5040560;28;20044;-68
2023/10/24 13:55:29;;;;;;;48.88;23.10;;;;;;;;;;5042658;28;20506;-68
2023/10/24 13:57:54;;;;;;;22.65;20.45;;;;;;;;;;5039002;28;20562;-68
2023/10/24 14:00:20;;;;;;;28.20;22.10;;;;;;;;;;5043979;28;20808;-69
2023/10/24 14:02:46;;;;;;;24.55;22.23;;;;;;;;;;5050708;28;20036;-68
2023/10/24 14:05:11;;;;;;;22.63;20.40;;;;;;;;;;5047850;28;20117;-68
2023/10/24 14:07:37;;;;;;;31.50;24.42;;;;;;;;;;5047125;28;20025;-68
2023/10/24 14:10:03;;;;;;;40.08;25.95;;;;;;;;;;5042809;28;20044;-68
2023/10/24 14:12:28;;;;;;;23.10;20.73;;;;;;;;;;5045185;28;20749;-69
2023/10/24 14:14:54;;;;;;;22.83;20.75;;;;;;;;;;5048449;28;20032;-66
2023/10/24 14:17:19;;;;;;;22.35;20.30;;;;;;;;;;5047851;28;20086;-66
2023/10/24 14:19:48;;;;;;;21.92;20.02;;;;;;;;;;5043895;28;20826;-66